Terminal Aerodrome Forecast
Issued by NWS Aberdeen, SD

Home | Current Version | Previous Version | Text Only | Print | Product List | Glossary On
Versions: 1 2 3 4 5 6 7 8 9 10 11 12 13 14 15 16 17 18 19 20 21 22 23 24 25 26 27 28 29 30 31 32 33 34 35 36 37 38 39 40 41
000
FTAK31 PAFA 201634 AAE
TAFABR
TAF AMD
PABR 201634Z 2017/2112 04010KT 3/4SM -SN BR SCT004 OVC012
      TEMPO 2017/2020 1/4SM -SN FZFG BKN004 OVC012
     FM202000 07010KT 2SM BR OVC012
     FM202200 07010KT P6SM BCFG BKN015=

USA.gov is the U.S. government's official web portal to all federal, state and local government web resources and services.